Time,TemperatureF,DewpointF,PressureIn,WindDirection,WindDirectionDegrees,WindSpeedMPH,WindSpeedGustMPH,Humidity,HourlyPrecipIn,Conditions,Clouds,dailyrainin,SolarRadiationWatts/m^2,SoftwareType,DateUTC
2013-06-28 16:14:00,66.2,64.7,29.56,NW,309,0.0,1.0,95,0.67,,,0.10,46,Wunderground v.1.15,2013-06-28 20:14:00,
2013-06-28 16:16:00,66.2,65.0,29.55,NW,309,0.0,1.0,96,0.30,,,0.10,49,Wunderground v.1.15,2013-06-28 20:16:00,
2013-06-28 16:18:00,65.9,63.8,29.55,NW,309,0.0,1.0,93,0.25,,,0.11,67,Wunderground v.1.15,2013-06-28 20:18:00,
2013-06-28 16:20:00,65.6,63.2,29.54,NW,311,0.0,1.0,92,0.17,,,0.12,83,Wunderground v.1.15,2013-06-28 20:20:00,
2013-06-28 16:26:00,64.5,62.1,29.54,NW,311,0.0,0.0,92,0.11,,,0.13,113,Wunderground v.1.15,2013-06-28 20:26:00,
2013-06-28 16:32:00,64.0,61.9,29.53,NW,311,0.0,0.0,93,0.09,,,0.13,63,Wunderground v.1.15,2013-06-28 20:32:00,
2013-06-28 16:38:00,63.9,62.1,29.54,NW,311,0.0,0.0,94,0.05,,,0.13,72,Wunderground v.1.15,2013-06-28 20:38:00,
2013-06-28 16:44:00,63.9,62.4,29.54,NW,311,0.0,0.0,95,0.00,,,0.13,44,Wunderground v.1.15,2013-06-28 20:44:00,
2013-06-28 16:50:00,64.0,62.5,29.54,NW,310,0.0,2.0,95,0.00,,,0.13,28,Wunderground v.1.15,2013-06-28 20:50:00,
2013-06-28 16:56:00,64.0,62.8,29.54,West,259,0.0,0.0,96,0.00,,,0.13,26,Wunderground v.1.15,2013-06-28 20:56:00,
2013-06-28 17:02:00,64.0,63.1,29.54,West,259,0.0,4.0,97,0.00,,,0.14,25,Wunderground v.1.15,2013-06-28 21:02:00,
2013-06-28 17:08:00,64.1,63.2,29.54,West,259,0.0,4.0,97,0.29,,,0.16,32,Wunderground v.1.15,2013-06-28 21:08:00,
2013-06-28 17:14:00,64.1,63.2,29.54,West,259,0.0,4.0,97,0.07,,,0.16,30,Wunderground v.1.15,2013-06-28 21:14:00,
2013-06-28 17:20:00,63.8,62.9,29.54,SSW,196,0.0,4.0,97,0.04,,,0.16,25,Wunderground v.1.15,2013-06-28 21:20:00,
2013-06-28 17:26:00,63.9,63.0,29.55,North,9,1.0,4.0,97,0.00,,,0.16,21,Wunderground v.1.15,2013-06-28 21:26:00,
2013-06-28 17:32:00,63.7,62.5,29.54,WNW,284,1.0,4.0,96,0.00,,,0.17,18,Wunderground v.1.15,2013-06-28 21:32:00,
2013-06-28 17:38:00,63.7,62.5,29.53,SW,221,0.0,4.0,96,0.10,,,0.18,19,Wunderground v.1.15,2013-06-28 21:38:00,
2013-06-28 17:44:00,63.6,62.4,29.55,SW,222,0.0,4.0,96,0.07,,,0.18,19,Wunderground v.1.15,2013-06-28 21:44:00,
2013-06-28 17:50:00,63.6,62.7,29.55,SW,222,0.0,4.0,97,0.04,,,0.18,18,Wunderground v.1.15,2013-06-28 21:50:00,
2013-06-28 17:56:00,63.5,62.6,29.55,SW,222,0.0,4.0,97,0.00,,,0.18,16,Wunderground v.1.15,2013-06-28 21:56:00,
2013-06-28 18:02:00,63.5,62.9,29.54,SW,222,0.0,4.0,98,0.00,,,0.18,14,Wunderground v.1.15,2013-06-28 22:02:00,
2013-06-28 18:08:00,63.5,62.9,29.55,SW,222,0.0,4.0,98,0.00,,,0.18,14,Wunderground v.1.15,2013-06-28 22:08:00,
2013-06-28 18:14:00,63.4,62.8,29.55,WSW,257,0.0,4.0,98,0.00,,,0.18,14,Wunderground v.1.15,2013-06-28 22:14:00,
2013-06-28 18:20:00,63.3,62.4,29.55,WNW,285,1.0,4.0,97,0.00,,,0.18,14,Wunderground v.1.15,2013-06-28 22:20:00,
2013-06-28 18:26:00,63.3,62.4,29.55,WNW,285,0.0,4.0,97,0.00,,,0.18,14,Wunderground v.1.15,2013-06-28 22:26:00,
2013-06-28 18:32:00,63.3,62.4,29.55,WNW,285,0.0,4.0,97,0.00,,,0.18,16,Wunderground v.1.15,2013-06-28 22:32:00,
2013-06-28 18:38:00,63.2,62.3,29.55,WNW,285,0.0,4.0,97,0.00,,,0.19,16,Wunderground v.1.15,2013-06-28 22:38:00,
2013-06-28 18:44:00,63.2,62.3,29.55,WNW,285,0.0,4.0,97,0.00,,,0.19,14,Wunderground v.1.15,2013-06-28 22:44:00,
2013-06-28 18:50:00,63.3,62.4,29.55,WNW,296,0.0,4.0,97,0.06,,,0.20,14,Wunderground v.1.15,2013-06-28 22:50:00,
2013-06-28 18:56:00,63.3,62.4,29.56,WNW,296,0.0,4.0,97,0.06,,,0.20,16,Wunderground v.1.15,2013-06-28 22:56:00,
2013-06-28 19:02:00,63.2,62.3,29.55,WNW,296,0.0,4.0,97,0.04,,,0.20,19,Wunderground v.1.15,2013-06-28 23:02:00,
2013-06-28 19:08:00,63.1,62.2,29.55,NNW,332,0.0,4.0,97,0.04,,,0.21,19,Wunderground v.1.15,2013-06-28 23:08:00,
2013-06-28 19:14:00,63.1,62.2,29.55,NNW,332,0.0,4.0,97,0.07,,,0.22,33,Wunderground v.1.15,2013-06-28 23:14:00,
2013-06-28 19:20:00,63.1,62.2,29.56,WSW,245,0.0,4.0,97,0.07,,,0.22,65,Wunderground v.1.15,2013-06-28 23:20:00,
2013-06-28 19:26:00,63.1,62.2,29.57,West,273,1.0,4.0,97,0.05,,,0.23,70,Wunderground v.1.15,2013-06-28 23:26:00,
2013-06-28 19:32:00,63.2,62.3,29.56,West,272,1.0,4.0,97,0.10,,,0.24,65,Wunderground v.1.15,2013-06-28 23:32:00,
2013-06-28 19:38:00,63.3,62.4,29.56,West,272,0.0,4.0,97,0.08,,,0.24,47,Wunderground v.1.15,2013-06-28 23:38:00,
2013-06-28 19:44:00,63.1,61.9,29.55,West,279,0.0,4.0,96,0.05,,,0.24,44,Wunderground v.1.15,2013-06-28 23:44:00,
2013-06-28 19:50:00,63.1,61.9,29.55,SW,227,0.0,4.0,96,0.00,,,0.24,44,Wunderground v.1.15,2013-06-28 23:50:00,
2013-06-28 19:56:00,63.0,61.8,29.55,SW,227,0.0,4.0,96,0.00,,,0.24,40,Wunderground v.1.15,2013-06-28 23:56:00,
2013-06-28 20:02:00,62.9,61.7,29.54,West,261,0.0,4.0,96,0.00,,,0.24,30,Wunderground v.1.15,2013-06-29 00:02:00,
2013-06-28 20:08:00,62.8,61.6,29.54,West,261,0.0,4.0,96,0.00,,,0.24,37,Wunderground v.1.15,2013-06-29 00:08:00,
2013-06-28 20:14:00,62.7,61.8,29.54,West,261,0.0,4.0,97,0.00,,,0.24,33,Wunderground v.1.15,2013-06-29 00:14:00,
2013-06-28 20:20:00,62.7,61.8,29.54,West,261,0.0,4.0,97,0.00,,,0.24,37,Wunderground v.1.15,2013-06-29 00:20:00,
2013-06-28 20:26:00,62.7,61.8,29.54,West,261,0.0,4.0,97,0.00,,,0.24,26,Wunderground v.1.15,2013-06-29 00:26:00,
2013-06-28 20:32:00,62.5,61.6,29.55,West,261,0.0,4.0,97,0.00,,,0.24,18,Wunderground v.1.15,2013-06-29 00:32:00,
2013-06-28 20:38:00,62.3,61.4,29.55,West,261,0.0,4.0,97,0.00,,,0.24,11,Wunderground v.1.15,2013-06-29 00:38:00,
2013-06-28 20:44:00,62.2,61.3,29.55,West,261,0.0,4.0,97,0.00,,,0.24,5,Wunderground v.1.15,2013-06-29 00:44:00,
2013-06-28 20:50:00,62.1,61.5,29.55,West,261,0.0,4.0,98,0.00,,,0.24,0,Wunderground v.1.15,2013-06-29 00:50:00,
2013-06-28 20:56:00,62.1,61.5,29.55,West,261,0.0,4.0,98,0.00,,,0.24,0,Wunderground v.1.15,2013-06-29 00:56:00,
2013-06-28 21:02:00,62.0,61.4,29.55,West,261,0.0,4.0,98,0.00,,,0.24,0,Wunderground v.1.15,2013-06-29 01:02:00,
2013-06-28 21:08:00,62.1,61.5,29.56,West,261,0.0,4.0,98,0.00,,,0.24,0,Wunderground v.1.15,2013-06-29 01:08:00,
2013-06-28 21:14:00,62.0,61.4,29.56,WNW,285,0.0,4.0,98,0.00,,,0.24,0,Wunderground v.1.15,2013-06-29 01:14:00,
2013-06-28 21:20:00,62.0,61.1,29.56,WNW,285,0.0,4.0,97,0.00,,,0.24,0,Wunderground v.1.15,2013-06-29 01:20:00,
2013-06-28 21:26:00,62.0,61.1,29.56,WSW,239,0.0,4.0,97,0.00,,,0.24,0,Wunderground v.1.15,2013-06-29 01:26:00,
2013-06-28 21:32:00,61.9,61.0,29.56,SW,235,1.0,4.0,97,0.00,,,0.24,0,Wunderground v.1.15,2013-06-29 01:32:00,
2013-06-28 21:38:00,61.8,60.6,29.56,SW,235,1.0,4.0,96,0.00,,,0.24,0,Wunderground v.1.15,2013-06-29 01:38:00,